Time;durP1;ratioP1;P1;durP2;ratioP2;P2;SDS_P1;SDS_P2;PMS_P1;PMS_P2;Temp;Humidity;BMP_temperature;BMP_pressure;BME280_temperature;BME280_humidity;BME280_pressure;Samples;Min_cycle;Max_cycle;Signal;HPM_P1;HPM_P2
2021/11/20 00:01:06;;;;;;;1.63;1.10;;;;;;;;;;4974838;28;82551;-1
2021/11/20 00:03:33;;;;;;;1.75;1.17;;;;;;;;;;4979514;28;82483;-2
2021/11/20 00:06:00;;;;;;;1.05;1.02;;;;;;;;;;4982523;28;82233;0
2021/11/20 00:08:27;;;;;;;2.22;1.73;;;;;;;;;;4976803;28;83612;0
2021/11/20 00:10:57;;;;;;;2.05;1.48;;;;;;;;;;4969080;28;82539;0
2021/11/20 00:13:24;;;;;;;1.00;0.90;;;;;;;;;;4975856;28;83525;1
2021/11/20 00:15:53;;;;;;;1.50;1.20;;;;;;;;;;4986392;28;83594;0
2021/11/20 00:18:20;;;;;;;2.13;1.45;;;;;;;;;;4990094;28;82607;0
2021/11/20 00:20:49;;;;;;;1.50;1.20;;;;;;;;;;4986422;28;81769;0
2021/11/20 00:23:17;;;;;;;1.13;1.00;;;;;;;;;;4987305;28;82712;0
2021/11/20 00:25:50;;;;;;;1.90;1.25;;;;;;;;;;4986826;28;83308;-1
2021/11/20 00:28:31;;;;;;;2.03;1.17;;;;;;;;;;4986753;28;82618;0
2021/11/20 00:30:59;;;;;;;1.25;1.15;;;;;;;;;;4986020;28;82577;0
2021/11/20 00:33:30;;;;;;;1.83;1.67;;;;;;;;;;4985477;28;83960;0
2021/11/20 00:35:59;;;;;;;1.52;1.42;;;;;;;;;;4985471;28;85346;0
2021/11/20 00:38:27;;;;;;;1.88;1.73;;;;;;;;;;4988895;28;82616;0
2021/11/20 00:41:14;;;;;;;1.25;1.15;;;;;;;;;;4984991;28;85160;0
2021/11/20 00:43:42;;;;;;;1.48;1.17;;;;;;;;;;4985459;28;84254;0
2021/11/20 00:46:10;;;;;;;1.77;1.67;;;;;;;;;;4985466;28;85109;0
2021/11/20 00:48:37;;;;;;;1.73;1.63;;;;;;;;;;4986576;28;82668;0
2021/11/20 00:51:06;;;;;;;1.50;1.13;;;;;;;;;;4985372;28;82155;0
2021/11/20 00:53:33;;;;;;;1.60;1.50;;;;;;;;;;4986152;28;83158;0
2021/11/20 00:56:00;;;;;;;1.30;1.20;;;;;;;;;;4987391;28;81077;1
2021/11/20 00:58:27;;;;;;;1.08;1.05;;;;;;;;;;4987045;28;82540;2
2021/11/20 01:00:56;;;;;;;1.85;1.27;;;;;;;;;;4987447;28;84932;0
2021/11/20 01:03:26;;;;;;;1.17;1.08;;;;;;;;;;4968504;28;83713;0
2021/11/20 01:05:54;;;;;;;1.30;1.20;;;;;;;;;;4984548;28;86037;0
2021/11/20 01:08:22;;;;;;;1.25;1.15;;;;;;;;;;4986193;28;83585;3
2021/11/20 01:10:51;;;;;;;1.70;1.48;;;;;;;;;;4984075;28;84045;1
2021/11/20 01:13:18;;;;;;;1.20;0.88;;;;;;;;;;4985211;28;84795;0
2021/11/20 01:15:47;;;;;;;2.47;1.30;;;;;;;;;;4984153;28;85346;0
2021/11/20 01:18:15;;;;;;;1.27;1.17;;;;;;;;;;4986536;28;81752;0
2021/11/20 01:20:44;;;;;;;1.30;0.90;;;;;;;;;;4985086;28;84428;1
2021/11/20 01:23:11;;;;;;;1.20;1.10;;;;;;;;;;4987697;28;84904;1
2021/11/20 01:25:46;;;;;;;1.40;1.00;;;;;;;;;;4986148;28;82840;0
2021/11/20 01:28:25;;;;;;;1.20;1.05;;;;;;;;;;4984176;28;86288;0
2021/11/20 01:31:13;;;;;;;1.90;1.27;;;;;;;;;;4984901;28;81777;3
2021/11/20 01:33:42;;;;;;;1.38;1.23;;;;;;;;;;4984568;28;84113;0
2021/11/20 01:36:11;;;;;;;1.90;1.45;;;;;;;;;;4984454;28;85676;3
2021/11/20 01:38:39;;;;;;;1.17;1.08;;;;;;;;;;4984655;28;83979;2
2021/11/20 01:41:13;;;;;;;1.42;1.10;;;;;;;;;;4984588;28;84666;2
2021/11/20 01:43:55;;;;;;;1.13;1.02;;;;;;;;;;4985335;28;82630;0
2021/11/20 01:46:24;;;;;;;1.10;0.93;;;;;;;;;;4987486;28;83930;0
2021/11/20 01:49:00;;;;;;;1.20;1.13;;;;;;;;;;4984261;28;85346;0
2021/11/20 01:51:49;;;;;;;1.35;1.25;;;;;;;;;;4984443;28;81908;1
2021/11/20 01:54:25;;;;;;;1.17;0.85;;;;;;;;;;4983179;28;83621;2
2021/11/20 01:57:23;;;;;;;1.60;1.02;;;;;;;;;;4984446;28;81757;3
2021/11/20 01:59:59;;;;;;;2.20;1.38;;;;;;;;;;4984176;28;82990;1
2021/11/20 02:02:58;;;;;;;1.35;0.90;;;;;;;;;;4986238;28;82140;0
2021/11/20 02:05:38;;;;;;;1.13;0.98;;;;;;;;;;4983950;28;83993;0
2021/11/20 02:08:35;;;;;;;1.00;0.90;;;;;;;;;;4985358;28;83457;1
2021/11/20 02:11:13;;;;;;;0.77;0.77;;;;;;;;;;4985885;28;85347;1
2021/11/20 02:13:41;;;;;;;0.90;0.90;;;;;;;;;;4984778;28;84204;0
2021/11/20 02:16:12;;;;;;;1.45;1.33;;;;;;;;;;4983915;28;82591;0
2021/11/20 02:18:41;;;;;;;0.80;0.80;;;;;;;;;;4983890;28;85458;0
2021/11/20 02:21:19;;;;;;;1.40;1.30;;;;;;;;;;4982815;28;82727;0
2021/11/20 02:23:52;;;;;;;1.20;1.10;;;;;;;;;;4984080;28;84468;1
2021/11/20 02:26:21;;;;;;;1.58;1.10;;;;;;;;;;4983618;28;84452;0
2021/11/20 02:28:52;;;;;;;0.73;0.73;;;;;;;;;;4984365;28;83727;0
2021/11/20 02:31:44;;;;;;;1.17;1.05;;;;;;;;;;4981171;28;82176;0
2021/11/20 02:34:13;;;;;;;1.05;0.93;;;;;;;;;;4986626;28;85564;0
2021/11/20 02:36:41;;;;;;;1.10;1.00;;;;;;;;;;4983834;28;84649;0
2021/11/20 02:39:14;;;;;;;1.15;1.05;;;;;;;;;;4985452;28;82814;0
2021/11/20 02:41:44;;;;;;;1.30;1.20;;;;;;;;;;4983661;28;83991;0
2021/11/20 02:44:13;;;;;;;1.30;1.17;;;;;;;;;;4983424;28;85097;0
2021/11/20 02:46:44;;;;;;;1.35;1.00;;;;;;;;;;4983082;28;84614;0
2021/11/20 02:49:12;;;;;;;3.33;1.20;;;;;;;;;;4983239;28;84273;0
2021/11/20 02:51:55;;;;;;;2.13;1.52;;;;;;;;;;4983652;28;84616;0
2021/11/20 02:54:23;;;;;;;1.40;1.08;;;;;;;;;;4985889;28;86029;0
2021/11/20 02:57:06;;;;;;;1.40;1.00;;;;;;;;;;4983708;28;85158;0
2021/11/20 02:59:33;;;;;;;1.27;1.02;;;;;;;;;;4983156;28;85086;0
2021/11/20 03:02:00;;;;;;;1.40;1.10;;;;;;;;;;4983042;28;83783;0
2021/11/20 03:04:29;;;;;;;1.10;1.00;;;;;;;;;;4982875;28;84597;1
2021/11/20 03:06:57;;;;;;;1.25;1.00;;;;;;;;;;4984923;28;83400;0
2021/11/20 03:09:28;;;;;;;2.10;1.08;;;;;;;;;;4983441;28;82394;1
2021/11/20 03:12:00;;;;;;;1.10;1.00;;;;;;;;;;4982105;28;84907;0
2021/11/20 03:14:29;;;;;;;0.98;0.90;;;;;;;;;;4983300;28;82952;0
2021/11/20 03:16:58;;;;;;;1.30;1.20;;;;;;;;;;4985555;28;83692;0
2021/11/20 03:19:27;;;;;;;1.02;0.90;;;;;;;;;;4983445;28;82679;0
2021/11/20 03:21:59;;;;;;;1.63;1.20;;;;;;;;;;4982622;28;84120;0
2021/11/20 03:24:29;;;;;;;1.38;1.27;;;;;;;;;;4983121;28;85217;0
2021/11/20 03:26:57;;;;;;;0.93;0.88;;;;;;;;;;4983660;28;84931;0
2021/11/20 03:29:28;;;;;;;1.80;1.02;;;;;;;;;;4984248;28;82272;0
2021/11/20 03:31:56;;;;;;;1.10;0.93;;;;;;;;;;4966819;28;84072;0
2021/11/20 03:34:26;;;;;;;1.20;1.10;;;;;;;;;;4971264;28;83783;0
2021/11/20 03:36:54;;;;;;;1.05;0.90;;;;;;;;;;4986879;28;82729;1
2021/11/20 03:39:26;;;;;;;0.95;0.90;;;;;;;;;;4989390;28;84368;1
2021/11/20 03:41:53;;;;;;;1.20;1.10;;;;;;;;;;4986235;28;83938;0
2021/11/20 03:44:20;;;;;;;0.75;0.70;;;;;;;;;;4986425;28;84603;1
2021/11/20 03:46:50;;;;;;;1.17;1.08;;;;;;;;;;4986523;28;84643;0
2021/11/20 03:49:18;;;;;;;1.13;1.02;;;;;;;;;;4985981;28;82243;0
2021/11/20 03:51:44;;;;;;;1.58;1.20;;;;;;;;;;4986249;28;85059;0
2021/11/20 03:54:12;;;;;;;1.80;0.82;;;;;;;;;;4986175;28;83964;0
2021/11/20 03:56:39;;;;;;;1.30;1.20;;;;;;;;;;4987860;28;82056;0
2021/11/20 03:59:07;;;;;;;1.17;0.98;;;;;;;;;;4985826;28;85096;0
2021/11/20 04:01:34;;;;;;;1.23;1.13;;;;;;;;;;4988105;28;85326;0
2021/11/20 04:04:02;;;;;;;1.35;1.25;;;;;;;;;;4985653;28;85669;1
2021/11/20 04:06:29;;;;;;;1.38;0.93;;;;;;;;;;4985705;28;85359;0
2021/11/20 04:09:02;;;;;;;1.00;0.90;;;;;;;;;;4986397;28;83781;0
2021/11/20 04:11:30;;;;;;;3.08;1.50;;;;;;;;;;4985209;28;85096;0
2021/11/20 04:13:57;;;;;;;1.75;1.23;;;;;;;;;;4985116;28;85173;0
2021/11/20 04:16:26;;;;;;;0.90;0.90;;;;;;;;;;4986042;28;84338;0
2021/11/20 04:18:56;;;;;;;1.40;1.27;;;;;;;;;;4986722;28;85046;1
2021/11/20 04:21:23;;;;;;;1.30;1.20;;;;;;;;;;4985506;28;85126;0
2021/11/20 04:23:51;;;;;;;1.98;1.20;;;;;;;;;;4988536;28;83951;0
2021/11/20 04:26:30;;;;;;;1.48;1.10;;;;;;;;;;4986159;28;84579;0
2021/11/20 04:28:57;;;;;;;1.42;1.10;;;;;;;;;;4987327;28;81809;0
2021/11/20 04:31:29;;;;;;;1.30;1.20;;;;;;;;;;4985375;28;83949;0
2021/11/20 04:33:56;;;;;;;1.10;0.90;;;;;;;;;;4985609;28;85267;0
2021/11/20 04:36:26;;;;;;;1.48;1.02;;;;;;;;;;4985386;28;84654;0
2021/11/20 04:38:53;;;;;;;1.17;1.10;;;;;;;;;;4985068;28;85229;0
2021/11/20 04:41:20;;;;;;;2.28;0.88;;;;;;;;;;4985737;28;85001;1
2021/11/20 04:43:47;;;;;;;1.25;1.00;;;;;;;;;;4985667;28;84167;0
2021/11/20 04:46:16;;;;;;;1.33;1.23;;;;;;;;;;4987169;28;84036;0
2021/11/20 04:48:43;;;;;;;0.60;0.60;;;;;;;;;;4977784;28;84324;0
2021/11/20 04:51:11;;;;;;;0.47;0.47;;;;;;;;;;4964933;28;85264;0
2021/11/20 04:53:38;;;;;;;0.55;0.55;;;;;;;;;;4976908;28;85115;0
2021/11/20 04:56:08;;;;;;;0.73;0.73;;;;;;;;;;4983174;28;83822;0
2021/11/20 04:58:35;;;;;;;0.50;0.50;;;;;;;;;;4982471;28;84612;0
2021/11/20 05:01:03;;;;;;;2.08;0.50;;;;;;;;;;4978442;28;85299;0
2021/11/20 05:03:36;;;;;;;0.60;0.60;;;;;;;;;;4966537;28;83757;0
2021/11/20 05:06:03;;;;;;;0.55;0.55;;;;;;;;;;4967132;28;84612;0
2021/11/20 05:08:30;;;;;;;0.70;0.50;;;;;;;;;;4982269;28;84343;1
2021/11/20 05:11:06;;;;;;;4.72;4.28;;;;;;;;;;4974327;28;84491;0
2021/11/20 05:13:46;;;;;;;5.85;3.83;;;;;;;;;;4974779;28;85420;0
2021/11/20 05:16:14;;;;;;;5.63;3.53;;;;;;;;;;4980410;28;83967;0
2021/11/20 05:18:42;;;;;;;6.93;4.18;;;;;;;;;;4981082;28;85835;0
2021/11/20 05:21:19;;;;;;;2.83;2.00;;;;;;;;;;4976037;28;84302;0
2021/11/20 05:23:47;;;;;;;2.60;2.30;;;;;;;;;;4977688;28;82617;1
2021/11/20 05:26:14;;;;;;;3.92;2.00;;;;;;;;;;4985400;28;83463;2
2021/11/20 05:28:55;;;;;;;1.70;1.60;;;;;;;;;;4980338;28;83458;1
2021/11/20 05:31:22;;;;;;;2.30;1.88;;;;;;;;;;4975576;28;84847;1
2021/11/20 05:33:51;;;;;;;2.95;1.63;;;;;;;;;;4975718;28;83482;1
2021/11/20 05:36:20;;;;;;;1.55;1.45;;;;;;;;;;4966755;28;84243;1
2021/11/20 05:38:47;;;;;;;0.93;0.93;;;;;;;;;;4970333;28;85052;1
2021/11/20 05:41:13;;;;;;;2.33;1.08;;;;;;;;;;4973355;28;83895;-1
2021/11/20 05:43:45;;;;;;;0.98;0.90;;;;;;;;;;4966595;28;82523;3
2021/11/20 05:46:25;;;;;;;3.05;1.52;;;;;;;;;;4975457;28;84483;-19
2021/11/20 05:48:54;;;;;;;4.38;1.50;;;;;;;;;;4977307;28;85539;-18
2021/11/20 05:51:21;;;;;;;1.30;1.20;;;;;;;;;;4982958;28;84333;-17
2021/11/20 05:53:48;;;;;;;2.85;1.45;;;;;;;;;;4972852;28;84748;-18
2021/11/20 05:56:17;;;;;;;0.80;0.80;;;;;;;;;;4977940;28;82347;-17
2021/11/20 05:59:05;;;;;;;1.25;1.15;;;;;;;;;;4980477;28;83405;-19
2021/11/20 06:01:32;;;;;;;1.17;1.08;;;;;;;;;;4980983;28;84711;-19
2021/11/20 06:03:59;;;;;;;0.95;0.90;;;;;;;;;;4985069;28;82611;-19
2021/11/20 06:06:27;;;;;;;0.85;0.85;;;;;;;;;;4974946;28;84173;-19
2021/11/20 06:08:54;;;;;;;2.05;1.00;;;;;;;;;;4976164;28;82752;-19
2021/11/20 06:11:21;;;;;;;0.80;0.80;;;;;;;;;;4980609;28;84023;-19
2021/11/20 06:13:48;;;;;;;1.17;1.08;;;;;;;;;;4982925;28;84682;-19
2021/11/20 06:16:28;;;;;;;0.95;0.88;;;;;;;;;;4973329;28;83552;-18
2021/11/20 06:18:55;;;;;;;0.98;0.80;;;;;;;;;;4982489;28;84958;-19
2021/11/20 06:21:22;;;;;;;1.00;0.88;;;;;;;;;;4977444;28;84731;-19
2021/11/20 06:23:49;;;;;;;0.88;0.82;;;;;;;;;;4982421;28;83120;-19
2021/11/20 06:26:17;;;;;;;0.85;0.85;;;;;;;;;;4977740;28;83283;-18
2021/11/20 06:28:45;;;;;;;0.90;0.73;;;;;;;;;;4976040;28;84914;-19
2021/11/20 06:31:19;;;;;;;0.80;0.80;;;;;;;;;;4976646;28;83733;-19
2021/11/20 06:34:00;;;;;;;0.85;0.85;;;;;;;;;;4972196;28;85518;-19
2021/11/20 06:36:28;;;;;;;0.70;0.68;;;;;;;;;;4978008;28;82874;-19
2021/11/20 06:39:04;;;;;;;1.08;0.70;;;;;;;;;;4965597;28;83773;-19
2021/11/20 06:41:32;;;;;;;0.80;0.80;;;;;;;;;;4974404;28;84322;-19
2021/11/20 06:43:59;;;;;;;4.30;1.40;;;;;;;;;;4963048;28;82456;-18
2021/11/20 06:46:26;;;;;;;1.55;1.30;;;;;;;;;;4980093;28;81932;-18
2021/11/20 06:48:55;;;;;;;2.03;1.67;;;;;;;;;;4976347;28;84646;-18
2021/11/20 06:51:24;;;;;;;2.90;2.03;;;;;;;;;;4976456;28;83738;-18
2021/11/20 06:54:10;;;;;;;4.20;3.15;;;;;;;;;;4971812;28;82542;-16
2021/11/20 06:57:09;;;;;;;4.28;2.28;;;;;;;;;;4973590;28;83410;-16
2021/11/20 07:02:58;;;;;;;4.82;2.55;;;;;;;;;;4978139;28;82240;-16
2021/11/20 07:05:27;;;;;;;6.60;2.60;;;;;;;;;;4976164;28;82746;-16
2021/11/20 07:07:54;;;;;;;4.22;2.95;;;;;;;;;;4973238;28;83576;-16
2021/11/20 07:10:22;;;;;;;5.80;3.92;;;;;;;;;;4973679;28;82682;-16
2021/11/20 07:12:54;;;;;;;8.98;3.58;;;;;;;;;;4976071;28;82007;-16
2021/11/20 07:15:20;;;;;;;6.50;3.67;;;;;;;;;;4977689;28;82227;-16
2021/11/20 07:17:47;;;;;;;5.57;2.97;;;;;;;;;;4978399;28;85045;-16
2021/11/20 07:20:40;;;;;;;5.07;3.85;;;;;;;;;;4983797;28;82010;-17
2021/11/20 07:23:36;;;;;;;5.05;3.38;;;;;;;;;;4983319;28;83267;-16
2021/11/20 07:26:05;;;;;;;6.25;3.13;;;;;;;;;;4978394;28;84226;-16
2021/11/20 07:28:32;;;;;;;11.13;5.22;;;;;;;;;;4976479;28;84819;-16
2021/11/20 07:30:59;;;;;;;11.20;8.15;;;;;;;;;;4984272;28;84869;-16
2021/11/20 07:33:25;;;;;;;12.35;6.90;;;;;;;;;;4973341;28;82369;-17
2021/11/20 07:35:54;;;;;;;12.98;9.23;;;;;;;;;;4977657;28;84860;-19
2021/11/20 07:38:24;;;;;;;13.45;9.07;;;;;;;;;;4974227;28;84381;-17
2021/11/20 07:40:51;;;;;;;12.50;9.25;;;;;;;;;;4985038;28;84286;-17
2021/11/20 07:43:17;;;;;;;17.92;8.68;;;;;;;;;;4983186;28;83772;-16
2021/11/20 07:46:00;;;;;;;13.23;6.50;;;;;;;;;;4983898;28;83202;-16
2021/11/20 07:48:28;;;;;;;13.43;7.05;;;;;;;;;;4971637;28;82816;-16
2021/11/20 07:50:58;;;;;;;11.23;7.15;;;;;;;;;;4967982;28;83566;-16
2021/11/20 07:53:37;;;;;;;11.02;6.60;;;;;;;;;;4961283;28;82556;-16
2021/11/20 07:56:05;;;;;;;12.43;8.23;;;;;;;;;;4970298;28;83587;-16
2021/11/20 07:58:33;;;;;;;8.60;5.03;;;;;;;;;;4978826;28;84155;-15
2021/11/20 08:01:03;;;;;;;9.05;5.47;;;;;;;;;;4977918;28;84257;-16
2021/11/20 08:03:33;;;;;;;8.82;4.65;;;;;;;;;;4964850;28;83316;-16
2021/11/20 08:06:23;;;;;;;9.85;4.35;;;;;;;;;;4982790;28;82133;-15
2021/11/20 08:09:04;;;;;;;5.97;3.70;;;;;;;;;;4979644;28;84456;-16
2021/11/20 08:12:00;;;;;;;5.95;3.72;;;;;;;;;;4983245;28;81972;-16
2021/11/20 08:14:47;;;;;;;5.38;3.42;;;;;;;;;;4975412;28;83747;-16
2021/11/20 08:17:40;;;;;;;4.82;2.85;;;;;;;;;;4971919;28;83138;-16
2021/11/20 08:20:28;;;;;;;3.50;2.97;;;;;;;;;;4969612;28;82477;-16
2021/11/20 08:23:18;;;;;;;5.22;3.13;;;;;;;;;;4972776;28;82140;-16
2021/11/20 08:25:46;;;;;;;4.25;3.78;;;;;;;;;;4970156;28;85296;-17
2021/11/20 08:28:14;;;;;;;3.05;2.42;;;;;;;;;;4960411;28;82850;-16
2021/11/20 08:30:42;;;;;;;3.78;2.70;;;;;;;;;;4978024;28;84004;-16
2021/11/20 08:33:11;;;;;;;4.88;2.65;;;;;;;;;;4964464;28;84230;-16
2021/11/20 08:35:46;;;;;;;3.00;2.65;;;;;;;;;;4984997;28;83026;-16
2021/11/20 08:38:33;;;;;;;3.20;2.70;;;;;;;;;;4970012;28;81975;-16
2021/11/20 08:41:05;;;;;;;3.70;3.03;;;;;;;;;;4974650;28;86247;-15
2021/11/20 08:43:38;;;;;;;4.47;3.97;;;;;;;;;;4971983;28;83769;-15
2021/11/20 08:46:15;;;;;;;3.00;2.70;;;;;;;;;;4979790;28;83362;-17
2021/11/20 08:48:42;;;;;;;3.40;2.72;;;;;;;;;;4973695;28;84867;-23
2021/11/20 08:51:11;;;;;;;3.13;2.20;;;;;;;;;;4965421;28;84103;-14
2021/11/20 08:53:41;;;;;;;3.33;3.03;;;;;;;;;;4982944;28;84753;-16
2021/11/20 08:56:09;;;;;;;3.13;2.35;;;;;;;;;;4981379;28;82403;-15
2021/11/20 08:58:40;;;;;;;3.85;2.75;;;;;;;;;;4978630;28;82617;-16
2021/11/20 09:01:22;;;;;;;2.42;2.22;;;;;;;;;;4981031;28;83895;-16
2021/11/20 09:04:05;;;;;;;2.35;2.15;;;;;;;;;;4977608;28;83690;-12
2021/11/20 09:06:49;;;;;;;3.20;2.13;;;;;;;;;;4974089;28;84838;-17
2021/11/20 09:09:17;;;;;;;3.78;2.25;;;;;;;;;;4974288;28;84485;-16
2021/11/20 09:11:53;;;;;;;2.28;2.08;;;;;;;;;;4976918;28;83821;-15
2021/11/20 09:14:25;;;;;;;4.38;1.92;;;;;;;;;;4966821;28;83271;-16
2021/11/20 09:17:05;;;;;;;2.00;1.65;;;;;;;;;;4990710;28;82109;-16
2021/11/20 09:19:33;;;;;;;2.63;2.20;;;;;;;;;;4984633;28;85078;-17
2021/11/20 09:22:01;;;;;;;2.45;2.15;;;;;;;;;;4982169;28;85068;-17
2021/11/20 09:24:42;;;;;;;2.63;1.90;;;;;;;;;;4982791;28;84121;-17
2021/11/20 09:27:33;;;;;;;2.17;1.80;;;;;;;;;;4981778;28;84293;-16
2021/11/20 09:30:00;;;;;;;1.77;1.63;;;;;;;;;;4982534;28;84906;-17
2021/11/20 09:32:27;;;;;;;9.20;2.10;;;;;;;;;;4976308;28;83825;-18
2021/11/20 09:35:03;;;;;;;2.13;1.75;;;;;;;;;;4980988;28;84559;-16
2021/11/20 09:37:50;;;;;;;2.50;2.30;;;;;;;;;;4984134;28;83385;-18
2021/11/20 09:40:24;;;;;;;3.25;2.05;;;;;;;;;;4983008;28;82214;-18
2021/11/20 09:42:55;;;;;;;5.47;2.47;;;;;;;;;;4978681;28;84974;-18
2021/11/20 09:45:30;;;;;;;2.08;1.77;;;;;;;;;;4981112;28;83754;-18
2021/11/20 09:48:13;;;;;;;2.38;2.17;;;;;;;;;;4981109;28;84723;-19
2021/11/20 09:51:00;;;;;;;3.05;2.20;;;;;;;;;;4984076;28;84841;-18
2021/11/20 09:53:27;;;;;;;5.25;2.22;;;;;;;;;;4983035;28;83606;-17
2021/11/20 09:55:58;;;;;;;3.47;2.70;;;;;;;;;;4985023;28;82432;-18
2021/11/20 09:58:30;;;;;;;2.45;2.03;;;;;;;;;;4984143;28;83464;-18
2021/11/20 10:01:03;;;;;;;2.25;1.70;;;;;;;;;;4986679;28;82413;-18
2021/11/20 10:03:52;;;;;;;3.22;1.88;;;;;;;;;;4985171;28;83625;-18
2021/11/20 10:06:26;;;;;;;4.00;2.13;;;;;;;;;;4983714;28;82663;-17
2021/11/20 10:09:09;;;;;;;2.42;2.22;;;;;;;;;;4985084;28;82009;-18
2021/11/20 10:11:40;;;;;;;2.03;1.83;;;;;;;;;;4978963;28;83427;-18
2021/11/20 10:14:07;;;;;;;2.13;1.90;;;;;;;;;;4984689;28;81872;-19
2021/11/20 10:16:47;;;;;;;2.00;1.80;;;;;;;;;;4984938;28;83339;-19
2021/11/20 10:19:37;;;;;;;2.20;2.00;;;;;;;;;;4984547;28;84087;-18
2021/11/20 10:22:19;;;;;;;2.78;2.40;;;;;;;;;;4984648;28;81667;-18
2021/11/20 10:25:04;;;;;;;2.13;1.92;;;;;;;;;;4986284;28;83472;-18
2021/11/20 10:27:55;;;;;;;2.63;2.30;;;;;;;;;;4984626;28;82569;-17
2021/11/20 10:30:34;;;;;;;2.47;2.28;;;;;;;;;;4984296;28;83440;-17
2021/11/20 10:33:03;;;;;;;1.92;1.77;;;;;;;;;;4983907;28;82600;-18
2021/11/20 10:35:36;;;;;;;2.13;1.90;;;;;;;;;;4984658;28;81769;-17
2021/11/20 10:38:20;;;;;;;2.20;2.00;;;;;;;;;;4983753;28;83344;-18
2021/11/20 10:40:59;;;;;;;2.75;2.47;;;;;;;;;;4982683;28;85235;-18
2021/11/20 10:43:25;;;;;;;2.03;1.85;;;;;;;;;;4984249;28;82609;-18
2021/11/20 10:45:52;;;;;;;2.25;2.05;;;;;;;;;;4984393;28;82671;-18
2021/11/20 10:48:24;;;;;;;3.00;2.10;;;;;;;;;;4986166;28;83859;-18
2021/11/20 10:51:09;;;;;;;2.20;2.00;;;;;;;;;;4983626;28;83001;-18
2021/11/20 10:53:45;;;;;;;2.70;2.35;;;;;;;;;;4983696;28;82575;-19
2021/11/20 10:56:19;;;;;;;2.53;2.33;;;;;;;;;;4984697;28;82473;-18
2021/11/20 10:59:05;;;;;;;2.45;2.25;;;;;;;;;;4983728;28;83257;-18
2021/11/20 11:01:34;;;;;;;2.55;2.35;;;;;;;;;;4964283;28;83702;-18
2021/11/20 11:04:10;;;;;;;2.05;1.88;;;;;;;;;;4981979;28;82530;-18
2021/11/20 11:06:43;;;;;;;2.25;2.05;;;;;;;;;;4983917;28;83428;-18
2021/11/20 11:09:30;;;;;;;3.53;1.98;;;;;;;;;;4984574;28;82587;-18
2021/11/20 11:11:58;;;;;;;4.95;1.55;;;;;;;;;;4985590;28;82430;-18
2021/11/20 11:14:31;;;;;;;1.92;1.83;;;;;;;;;;4983045;28;83643;-17
2021/11/20 11:17:17;;;;;;;2.67;1.98;;;;;;;;;;4982122;28;82870;-18
2021/11/20 11:19:48;;;;;;;3.67;1.73;;;;;;;;;;4982951;28;84384;-18
2021/11/20 11:22:21;;;;;;;2.80;1.92;;;;;;;;;;4980115;28;83506;-18
2021/11/20 11:25:10;;;;;;;1.63;1.52;;;;;;;;;;4983262;28;82798;-17
2021/11/20 11:27:38;;;;;;;29.23;15.93;;;;;;;;;;4983376;28;83705;-17
2021/11/20 11:30:10;;;;;;;63.38;36.75;;;;;;;;;;4981934;28;83565;-17
2021/11/20 11:32:40;;;;;;;118.18;61.35;;;;;;;;;;4983074;28;86430;-17
2021/11/20 11:35:06;;;;;;;97.25;44.33;;;;;;;;;;4994200;28;84702;-17
2021/11/20 11:37:42;;;;;;;80.22;45.13;;;;;;;;;;4981183;28;85176;-18
2021/11/20 11:40:17;;;;;;;68.45;35.90;;;;;;;;;;4977619;28;84434;-17
2021/11/20 11:42:50;;;;;;;56.95;31.13;;;;;;;;;;4979983;28;84301;-18
2021/11/20 11:45:22;;;;;;;52.75;30.30;;;;;;;;;;4981405;28;85013;-16
2021/11/20 11:48:08;;;;;;;61.28;30.13;;;;;;;;;;4977728;28;84540;-17
2021/11/20 11:50:47;;;;;;;46.15;24.25;;;;;;;;;;4973876;28;83264;-17
2021/11/20 11:53:32;;;;;;;48.97;26.25;;;;;;;;;;4972324;28;83758;-17
2021/11/20 11:56:06;;;;;;;41.35;22.98;;;;;;;;;;4974704;28;84312;-17
2021/11/20 11:58:55;;;;;;;41.03;20.83;;;;;;;;;;4976211;28;85069;-19
2021/11/20 12:01:36;;;;;;;37.40;20.05;;;;;;;;;;4975486;28;83427;-17
2021/11/20 12:04:08;;;;;;;38.60;21.23;;;;;;;;;;4979949;28;83620;-17
2021/11/20 12:06:40;;;;;;;38.15;17.85;;;;;;;;;;4973373;28;85209;-17
2021/11/20 12:09:25;;;;;;;29.52;18.05;;;;;;;;;;4969095;28;84375;-14
2021/11/20 12:11:51;;;;;;;;;;;;;;;;;;4971509;28;83524;-13
2021/11/20 12:14:19;;;;;;;12.93;8.88;;;;;;;;;;4983592;28;85000;-13
2021/11/20 12:16:56;;;;;;;19.75;11.50;;;;;;;;;;4975623;28;84750;-14
2021/11/20 12:19:25;;;;;;;13.65;8.73;;;;;;;;;;4981676;28;83317;-16
2021/11/20 12:22:28;;;;;;;16.02;9.05;;;;;;;;;;4982986;28;84126;-14
2021/11/20 12:25:00;;;;;;;11.63;6.70;;;;;;;;;;4976962;28;82562;-14
2021/11/20 12:27:30;;;;;;;11.98;5.85;;;;;;;;;;4972800;28;81462;-10
2021/11/20 12:30:15;;;;;;;10.15;6.15;;;;;;;;;;4981950;28;82921;-14
2021/11/20 12:32:54;;;;;;;12.00;5.28;;;;;;;;;;4981880;28;83766;-12
2021/11/20 12:35:27;;;;;;;9.23;4.32;;;;;;;;;;4982869;28;82808;-12
2021/11/20 12:38:11;;;;;;;8.40;4.57;;;;;;;;;;4976824;28;83482;-17
2021/11/20 12:40:41;;;;;;;8.23;3.38;;;;;;;;;;4974043;28;83632;-38
2021/11/20 12:43:33;;;;;;;5.93;2.60;;;;;;;;;;4981949;28;81804;-28
2021/11/20 12:46:18;;;;;;;5.45;3.42;;;;;;;;;;4987681;28;82607;-26
2021/11/20 12:49:03;;;;;;;5.85;2.70;;;;;;;;;;4974497;28;82786;-32
2021/11/20 12:51:49;;;;;;;8.75;3.53;;;;;;;;;;4979595;28;83469;-30
2021/11/20 12:54:18;;;;;;;4.30;2.92;;;;;;;;;;4981565;28;83147;-29
2021/11/20 12:56:45;;;;;;;4.13;2.08;;;;;;;;;;4984098;28;81951;-28
2021/11/20 12:59:16;;;;;;;11.45;2.95;;;;;;;;;;4979735;28;83404;-20
2021/11/20 13:01:52;;;;;;;4.03;2.50;;;;;;;;;;4984264;28;84600;-23
2021/11/20 13:04:21;;;;;;;4.18;2.17;;;;;;;;;;4980227;28;82473;-25
2021/11/20 13:06:56;;;;;;;4.20;3.10;;;;;;;;;;4974863;28;82355;-22
2021/11/20 13:09:38;;;;;;;3.80;2.40;;;;;;;;;;4977303;28;82480;-25
2021/11/20 13:12:16;;;;;;;5.10;2.50;;;;;;;;;;4979280;28;82462;-22
2021/11/20 13:15:01;;;;;;;6.03;2.83;;;;;;;;;;4981788;28;83734;-26
2021/11/20 13:17:31;;;;;;;3.63;1.85;;;;;;;;;;4973480;28;82503;-23
2021/11/20 13:20:18;;;;;;;2.75;2.50;;;;;;;;;;4979585;28;83159;-19
2021/11/20 13:22:45;;;;;;;2.42;2.00;;;;;;;;;;4973831;28;83848;-19
2021/11/20 13:25:12;;;;;;;4.65;2.08;;;;;;;;;;4977189;28;82599;-19
2021/11/20 13:27:38;;;;;;;4.45;2.03;;;;;;;;;;4978062;28;83291;-18
2021/11/20 13:30:06;;;;;;;2.70;2.08;;;;;;;;;;4980180;28;83634;-18
2021/11/20 13:32:33;;;;;;;2.83;2.05;;;;;;;;;;4979550;28;83164;-20
2021/11/20 13:35:00;;;;;;;2.38;1.88;;;;;;;;;;4972371;28;83694;-20
2021/11/20 13:37:26;;;;;;;1.73;1.50;;;;;;;;;;4979911;28;82596;-19
2021/11/20 13:39:53;;;;;;;2.83;1.45;;;;;;;;;;4972738;28;82600;-20
2021/11/20 13:42:20;;;;;;;3.78;1.70;;;;;;;;;;4974642;28;82592;-19
2021/11/20 13:44:50;;;;;;;1.40;1.30;;;;;;;;;;4982622;28;82480;-19
2021/11/20 13:47:17;;;;;;;1.55;1.30;;;;;;;;;;4982909;28;82757;-19
2021/11/20 13:49:53;;;;;;;1.92;1.25;;;;;;;;;;4981649;28;82487;-17
2021/11/20 13:52:20;;;;;;;2.13;1.25;;;;;;;;;;4978328;28;84494;-18
2021/11/20 13:55:00;;;;;;;13.50;1.48;;;;;;;;;;4982201;28;82662;-19
2021/11/20 13:57:32;;;;;;;2.25;1.17;;;;;;;;;;4981261;28;82294;-18
2021/11/20 14:00:08;;;;;;;2.00;1.70;;;;;;;;;;4973360;28;82350;-18
2021/11/20 14:03:02;;;;;;;5.32;1.00;;;;;;;;;;4981072;28;82559;-18
2021/11/20 14:05:33;;;;;;;1.20;1.10;;;;;;;;;;4977708;28;81930;-17
2021/11/20 14:08:00;;;;;;;1.98;1.45;;;;;;;;;;4981828;28;82409;-19
2021/11/20 14:10:36;;;;;;;1.42;1.30;;;;;;;;;;4984356;28;82830;-18
2021/11/20 14:13:06;;;;;;;2.72;0.82;;;;;;;;;;4985999;28;82814;-16
2021/11/20 14:15:46;;;;;;;1.60;0.98;;;;;;;;;;4984743;28;83588;-18
2021/11/20 14:18:13;;;;;;;2.55;1.10;;;;;;;;;;4983099;28;82876;-18
2021/11/20 14:20:43;;;;;;;2.20;0.98;;;;;;;;;;4984591;28;84220;-18
2021/11/20 14:23:11;;;;;;;2.90;1.20;;;;;;;;;;4984577;28;83522;-20
2021/11/20 14:25:38;;;;;;;1.45;1.13;;;;;;;;;;4977818;28;82200;-19
2021/11/20 14:28:05;;;;;;;1.60;1.00;;;;;;;;;;4984357;28;83487;-22
2021/11/20 14:30:39;;;;;;;2.85;1.00;;;;;;;;;;4984114;28;83862;-22
2021/11/20 14:33:15;;;;;;;1.50;1.40;;;;;;;;;;4983379;28;82645;-16
2021/11/20 14:35:55;;;;;;;3.15;1.02;;;;;;;;;;4983017;28;83391;-16
2021/11/20 14:38:23;;;;;;;1.35;0.88;;;;;;;;;;4976539;28;81836;-16
2021/11/20 14:40:51;;;;;;;3.25;1.33;;;;;;;;;;4981832;28;83784;-16
2021/11/20 14:43:21;;;;;;;3.53;0.75;;;;;;;;;;4978382;28;84532;-11
2021/11/20 14:45:48;;;;;;;2.25;1.10;;;;;;;;;;4971865;28;82585;-16
2021/11/20 14:48:25;;;;;;;1.75;1.13;;;;;;;;;;4968481;28;83568;-16
2021/11/20 14:50:53;;;;;;;4.13;1.08;;;;;;;;;;4976464;28;83505;-17
2021/11/20 14:53:20;;;;;;;2.78;1.10;;;;;;;;;;4978454;28;82666;-16
2021/11/20 14:55:50;;;;;;;1.75;0.70;;;;;;;;;;4972888;28;83310;-16
2021/11/20 14:58:18;;;;;;;6.05;1.48;;;;;;;;;;4979296;28;83753;-15
2021/11/20 15:00:46;;;;;;;5.03;1.75;;;;;;;;;;4972530;28;82408;-22
2021/11/20 15:03:13;;;;;;;3.53;1.77;;;;;;;;;;4977139;28;83583;-19
2021/11/20 15:05:39;;;;;;;2.47;1.60;;;;;;;;;;4976114;28;82842;-19
2021/11/20 15:08:06;;;;;;;5.07;2.03;;;;;;;;;;4968378;28;83370;-19
2021/11/20 15:10:33;;;;;;;3.95;1.98;;;;;;;;;;4966187;28;82691;-19
2021/11/20 15:12:59;;;;;;;5.38;1.75;;;;;;;;;;4967086;28;81914;-19
2021/11/20 15:15:26;;;;;;;3.10;1.80;;;;;;;;;;4968787;28;83491;-19
2021/11/20 15:17:53;;;;;;;4.05;1.48;;;;;;;;;;4966389;28;83619;-19
2021/11/20 15:20:20;;;;;;;2.35;1.65;;;;;;;;;;4981714;28;82412;-18
2021/11/20 15:22:46;;;;;;;3.50;1.70;;;;;;;;;;4973903;28;83625;-19
2021/11/20 15:25:14;;;;;;;4.53;1.52;;;;;;;;;;4978455;28;82732;-19
2021/11/20 15:27:43;;;;;;;3.03;1.67;;;;;;;;;;4973398;28;81740;-19